sensor_id;sensor_type;location;lat;lon;timestamp;pressure;altitude;pressure_sealevel;temperature;humidity
59375;BME280;45172;55.006;73.460;2022-09-01T00:00:09;99587.56;;;15.46;nan
59375;BME280;45172;55.006;73.460;2022-09-01T00:02:47;99551.63;;;15.13;nan
59375;BME280;45172;55.006;73.460;2022-09-01T00:05:15;99549.97;;;15.05;nan
59375;BME280;45172;55.006;73.460;2022-09-01T00:07:41;99593.31;;;15.22;nan
59375;BME280;45172;55.006;73.460;2022-09-01T00:10:11;99578.38;;;15.08;nan
59375;BME280;45172;55.006;73.460;2022-09-01T00:12:37;99583.72;;;15.08;nan
59375;BME280;45172;55.006;73.460;2022-09-01T00:15:05;99582.84;;;15.07;nan
59375;BME280;45172;55.006;73.460;2022-09-01T00:17:31;99574.19;;;14.93;nan
59375;BME280;45172;55.006;73.460;2022-09-01T00:19:59;99582.03;;;15.02;nan
59375;BME280;45172;55.006;73.460;2022-09-01T00:22:25;99581.25;;;14.94;nan
59375;BME280;45172;55.006;73.460;2022-09-01T00:24:51;99548.53;;;14.84;nan
59375;BME280;45172;55.006;73.460;2022-09-01T00:27:17;99567.03;;;14.93;nan
59375;BME280;45172;55.006;73.460;2022-09-01T00:29:43;99556.41;;;14.92;nan
59375;BME280;45172;55.006;73.460;2022-09-01T00:32:14;99557.38;;;14.86;nan
59375;BME280;45172;55.006;73.460;2022-09-01T00:34:40;99571.44;;;14.99;nan
59375;BME280;45172;55.006;73.460;2022-09-01T00:37:12;99527.31;;;14.76;nan
59375;BME280;45172;55.006;73.460;2022-09-01T00:39:39;99558.00;;;15.04;nan
59375;BME280;45172;55.006;73.460;2022-09-01T00:42:05;99553.53;;;15.06;nan
59375;BME280;45172;55.006;73.460;2022-09-01T00:44:31;99526.25;;;14.88;nan
59375;BME280;45172;55.006;73.460;2022-09-01T00:47:03;99582.53;;;15.28;nan
59375;BME280;45172;55.006;73.460;2022-09-01T00:49:44;99577.22;;;15.26;nan
59375;BME280;45172;55.006;73.460;2022-09-01T00:52:28;99582.56;;;15.25;nan
59375;BME280;45172;55.006;73.460;2022-09-01T00:54:57;99573.53;;;15.33;nan
59375;BME280;45172;55.006;73.460;2022-09-01T00:57:25;99565.53;;;15.33;nan
59375;BME280;45172;55.006;73.460;2022-09-01T01:12:10;99574.50;;;15.81;nan
59375;BME280;45172;55.006;73.460;2022-09-01T01:14:44;99577.97;;;15.86;nan
59375;BME280;45172;55.006;73.460;2022-09-01T01:17:20;99579.72;;;15.89;nan
59375;BME280;45172;55.006;73.460;2022-09-01T01:19:55;99597.41;;;15.96;nan
59375;BME280;45172;55.006;73.460;2022-09-01T01:25:44;99539.25;;;16.11;nan
59375;BME280;45172;55.006;73.460;2022-09-01T01:30:46;99474.25;;;16.10;nan
59375;BME280;45172;55.006;73.460;2022-09-01T01:33:18;99518.41;;;16.69;nan
59375;BME280;45172;55.006;73.460;2022-09-01T01:35:45;99494.19;;;16.76;nan
59375;BME280;45172;55.006;73.460;2022-09-01T01:38:12;99518.63;;;16.98;nan
59375;BME280;45172;55.006;73.460;2022-09-01T01:40:40;99545.31;;;17.01;nan
59375;BME280;45172;55.006;73.460;2022-09-01T01:43:07;99531.06;;;17.01;nan
59375;BME280;45172;55.006;73.460;2022-09-01T01:45:36;99526.22;;;16.79;nan
59375;BME280;45172;55.006;73.460;2022-09-01T01:48:03;99523.41;;;16.83;nan
59375;BME280;45172;55.006;73.460;2022-09-01T01:50:35;99534.75;;;16.95;nan
59375;BME280;45172;55.006;73.460;2022-09-01T01:53:05;99551.66;;;16.95;nan
59375;BME280;45172;55.006;73.460;2022-09-01T01:55:35;99541.81;;;16.97;nan
59375;BME280;45172;55.006;73.460;2022-09-01T01:58:01;99472.13;;;16.67;nan
59375;BME280;45172;55.006;73.460;2022-09-01T02:00:40;99520.88;;;17.17;nan
59375;BME280;45172;55.006;73.460;2022-09-01T02:03:10;99533.91;;;17.31;nan
59375;BME280;45172;55.006;73.460;2022-09-01T02:05:49;99536.53;;;17.67;nan
59375;BME280;45172;55.006;73.460;2022-09-01T02:08:22;99541.94;;;17.99;nan
59375;BME280;45172;55.006;73.460;2022-09-01T02:10:52;99545.47;;;18.32;nan
59375;BME280;45172;55.006;73.460;2022-09-01T02:13:21;99540.19;;;18.59;nan
59375;BME280;45172;55.006;73.460;2022-09-01T02:15:59;99497.50;;;18.53;nan
59375;BME280;45172;55.006;73.460;2022-09-01T02:18:32;99541.94;;;18.90;nan
59375;BME280;45172;55.006;73.460;2022-09-01T02:21:10;99562.66;;;19.15;nan
59375;BME280;45172;55.006;73.460;2022-09-01T02:23:39;99524.50;;;19.06;nan
59375;BME280;45172;55.006;73.460;2022-09-01T02:26:08;99551.09;;;19.40;nan
59375;BME280;45172;55.006;73.460;2022-09-01T02:28:38;99550.44;;;19.59;nan
59375;BME280;45172;55.006;73.460;2022-09-01T02:31:17;99520.81;;;19.62;nan
59375;BME280;45172;55.006;73.460;2022-09-01T02:33:55;99535.84;;;19.93;nan
59375;BME280;45172;55.006;73.460;2022-09-01T02:36:21;99524.00;;;19.99;nan
59375;BME280;45172;55.006;73.460;2022-09-01T02:38:49;99542.91;;;20.21;nan
59375;BME280;45172;55.006;73.460;2022-09-01T02:41:16;99542.50;;;20.32;nan
59375;BME280;45172;55.006;73.460;2022-09-01T02:43:45;99541.06;;;20.23;nan
59375;BME280;45172;55.006;73.460;2022-09-01T02:46:18;99540.34;;;20.18;nan
59375;BME280;45172;55.006;73.460;2022-09-01T02:48:48;99561.06;;;20.15;nan
59375;BME280;45172;55.006;73.460;2022-09-01T02:51:23;99547.63;;;19.89;nan
59375;BME280;45172;55.006;73.460;2022-09-01T02:53:55;99564.06;;;19.80;nan
59375;BME280;45172;55.006;73.460;2022-09-01T02:56:25;99560.00;;;19.68;nan
59375;BME280;45172;55.006;73.460;2022-09-01T03:08:59;99561.91;;;20.17;nan
59375;BME280;45172;55.006;73.460;2022-09-01T03:11:28;99540.97;;;20.25;nan
59375;BME280;45172;55.006;73.460;2022-09-01T03:13:54;99560.88;;;20.45;nan
59375;BME280;45172;55.006;73.460;2022-09-01T03:16:20;99571.16;;;20.57;nan
59375;BME280;45172;55.006;73.460;2022-09-01T03:18:50;99572.44;;;20.71;nan
59375;BME280;45172;55.006;73.460;2022-09-01T03:21:17;99565.81;;;20.79;nan
59375;BME280;45172;55.006;73.460;2022-09-01T03:23:45;99571.66;;;20.91;nan
59375;BME280;45172;55.006;73.460;2022-09-01T03:26:19;99575.75;;;21.01;nan
59375;BME280;45172;55.006;73.460;2022-09-01T03:28:51;99537.00;;;20.83;nan
59375;BME280;45172;55.006;73.460;2022-09-01T03:31:17;99577.03;;;21.15;nan
59375;BME280;45172;55.006;73.460;2022-09-01T03:33:44;99586.41;;;21.27;nan
59375;BME280;45172;55.006;73.460;2022-09-01T03:36:20;99598.97;;;21.48;nan
59375;BME280;45172;55.006;73.460;2022-09-01T03:39:00;99588.19;;;21.48;nan
59375;BME280;45172;55.006;73.460;2022-09-01T03:41:28;99604.94;;;21.57;nan
59375;BME280;45172;55.006;73.460;2022-09-01T03:44:04;99616.97;;;21.70;nan
59375;BME280;45172;55.006;73.460;2022-09-01T03:46:35;99596.91;;;21.78;nan
59375;BME280;45172;55.006;73.460;2022-09-01T03:49:03;99611.53;;;21.93;nan
59375;BME280;45172;55.006;73.460;2022-09-01T03:51:42;99609.13;;;22.07;nan
59375;BME280;45172;55.006;73.460;2022-09-01T03:54:13;99589.78;;;21.97;nan
59375;BME280;45172;55.006;73.460;2022-09-01T03:56:40;99606.06;;;22.15;nan
59375;BME280;45172;55.006;73.460;2022-09-01T03:59:11;99623.72;;;22.43;nan
59375;BME280;45172;55.006;73.460;2022-09-01T04:01:42;99623.44;;;22.49;nan
59375;BME280;45172;55.006;73.460;2022-09-01T04:04:18;99618.38;;;22.62;nan
59375;BME280;45172;55.006;73.460;2022-09-01T04:06:51;99609.19;;;22.66;nan
59375;BME280;45172;55.006;73.460;2022-09-01T04:09:17;99639.56;;;22.91;nan
59375;BME280;45172;55.006;73.460;2022-09-01T04:11:43;99631.91;;;23.01;nan
59375;BME280;45172;55.006;73.460;2022-09-01T04:14:14;99632.31;;;23.10;nan
59375;BME280;45172;55.006;73.460;2022-09-01T04:16:44;99637.81;;;23.28;nan
59375;BME280;45172;55.006;73.460;2022-09-01T04:19:36;99644.28;;;23.43;nan
59375;BME280;45172;55.006;73.460;2022-09-01T04:22:12;99606.84;;;23.35;nan
59375;BME280;45172;55.006;73.460;2022-09-01T04:24:43;99637.53;;;23.71;nan
59375;BME280;45172;55.006;73.460;2022-09-01T04:27:15;99638.16;;;23.76;nan
59375;BME280;45172;55.006;73.460;2022-09-01T04:29:42;99612.41;;;23.69;nan
59375;BME280;45172;55.006;73.460;2022-09-01T04:32:11;99625.59;;;23.93;nan
59375;BME280;45172;55.006;73.460;2022-09-01T04:34:37;99609.91;;;24.00;nan
59375;BME280;45172;55.006;73.460;2022-09-01T04:37:20;99649.56;;;24.36;nan
59375;BME280;45172;55.006;73.460;2022-09-01T04:39:51;99654.41;;;24.47;nan
59375;BME280;45172;55.006;73.460;2022-09-01T04:42:19;99660.97;;;24.59;nan
59375;BME280;45172;55.006;73.460;2022-09-01T04:44:50;99656.66;;;24.72;nan
59375;BME280;45172;55.006;73.460;2022-09-01T04:47:24;99635.31;;;24.66;nan
59375;BME280;45172;55.006;73.460;2022-09-01T04:50:06;99643.34;;;24.85;nan
59375;BME280;45172;55.006;73.460;2022-09-01T04:52:39;99669.06;;;25.10;nan
59375;BME280;45172;55.006;73.460;2022-09-01T04:55:09;99629.47;;;25.08;nan
59375;BME280;45172;55.006;73.460;2022-09-01T04:57:53;99656.13;;;25.31;nan
59375;BME280;45172;55.006;73.460;2022-09-01T05:00:23;99647.63;;;25.38;nan
59375;BME280;45172;55.006;73.460;2022-09-01T05:02:54;99668.97;;;25.60;nan
59375;BME280;45172;55.006;73.460;2022-09-01T05:05:22;99674.03;;;25.66;nan
59375;BME280;45172;55.006;73.460;2022-09-01T05:07:49;99669.84;;;25.77;nan
59375;BME280;45172;55.006;73.460;2022-09-01T05:10:25;99674.81;;;25.84;nan
59375;BME280;45172;55.006;73.460;2022-09-01T05:12:59;99666.81;;;25.97;nan
59375;BME280;45172;55.006;73.460;2022-09-01T05:15:27;99665.47;;;26.05;nan
59375;BME280;45172;55.006;73.460;2022-09-01T05:17:55;99665.47;;;26.21;nan
59375;BME280;45172;55.006;73.460;2022-09-01T05:20:27;99640.31;;;26.17;nan
59375;BME280;45172;55.006;73.460;2022-09-01T05:23:04;99641.34;;;26.31;nan
59375;BME280;45172;55.006;73.460;2022-09-01T05:25:40;99655.53;;;26.65;nan
59375;BME280;45172;55.006;73.460;2022-09-01T05:28:20;99665.22;;;26.84;nan
59375;BME280;45172;55.006;73.460;2022-09-01T05:30:59;99665.53;;;26.93;nan
59375;BME280;45172;55.006;73.460;2022-09-01T05:33:27;99652.53;;;26.99;nan
59375;BME280;45172;55.006;73.460;2022-09-01T05:35:57;99660.69;;;27.13;nan
59375;BME280;45172;55.006;73.460;2022-09-01T05:38:29;99630.13;;;26.95;nan
59375;BME280;45172;55.006;73.460;2022-09-01T05:41:01;99661.03;;;27.21;nan
59375;BME280;45172;55.006;73.460;2022-09-01T05:43:31;99651.41;;;27.30;nan
59375;BME280;45172;55.006;73.460;2022-09-01T05:46:07;99627.03;;;27.29;nan
59375;BME280;45172;55.006;73.460;2022-09-01T05:48:33;99622.94;;;27.36;nan
59375;BME280;45172;55.006;73.460;2022-09-01T05:51:16;99652.91;;;27.64;nan
59375;BME280;45172;55.006;73.460;2022-09-01T05:53:48;99656.28;;;27.67;nan
59375;BME280;45172;55.006;73.460;2022-09-01T05:56:25;99634.72;;;27.64;nan
59375;BME280;45172;55.006;73.460;2022-09-01T05:58:52;99647.94;;;27.83;nan
59375;BME280;45172;55.006;73.460;2022-09-01T06:01:22;99659.69;;;27.84;nan
59375;BME280;45172;55.006;73.460;2022-09-01T06:03:57;99635.63;;;27.78;nan
59375;BME280;45172;55.006;73.460;2022-09-01T06:06:27;99654.38;;;27.95;nan
59375;BME280;45172;55.006;73.460;2022-09-01T06:09:05;99652.13;;;28.02;nan
59375;BME280;45172;55.006;73.460;2022-09-01T06:11:32;99637.63;;;27.88;nan
59375;BME280;45172;55.006;73.460;2022-09-01T06:14:00;99653.00;;;28.02;nan
59375;BME280;45172;55.006;73.460;2022-09-01T06:16:36;99627.28;;;27.94;nan
59375;BME280;45172;55.006;73.460;2022-09-01T06:19:07;99666.78;;;28.27;nan
59375;BME280;45172;55.006;73.460;2022-09-01T06:21:38;99674.63;;;28.32;nan
59375;BME280;45172;55.006;73.460;2022-09-01T06:24:05;99660.69;;;28.36;nan
59375;BME280;45172;55.006;73.460;2022-09-01T06:26:34;99669.09;;;28.46;nan
59375;BME280;45172;55.006;73.460;2022-09-01T06:29:05;99631.63;;;28.24;nan
59375;BME280;45172;55.006;73.460;2022-09-01T06:31:41;99662.56;;;28.49;nan
59375;BME280;45172;55.006;73.460;2022-09-01T06:34:11;99634.78;;;28.30;nan
59375;BME280;45172;55.006;73.460;2022-09-01T06:36:43;99665.94;;;28.52;nan
59375;BME280;45172;55.006;73.460;2022-09-01T06:39:20;99669.66;;;28.51;nan
59375;BME280;45172;55.006;73.460;2022-09-01T06:41:47;99629.31;;;28.30;nan
59375;BME280;45172;55.006;73.460;2022-09-01T06:44:14;99668.56;;;28.54;nan
59375;BME280;45172;55.006;73.460;2022-09-01T06:46:57;99679.75;;;28.36;nan
59375;BME280;45172;55.006;73.460;2022-09-01T06:49:26;99670.63;;;28.50;nan
59375;BME280;45172;55.006;73.460;2022-09-01T06:52:00;99668.56;;;28.54;nan
59375;BME280;45172;55.006;73.460;2022-09-01T06:54:28;99685.44;;;28.72;nan
59375;BME280;45172;55.006;73.460;2022-09-01T06:56:59;99648.50;;;28.68;nan
59375;BME280;45172;55.006;73.460;2022-09-01T06:59:30;99671.81;;;28.98;nan
59375;BME280;45172;55.006;73.460;2022-09-01T07:02:01;99677.94;;;28.89;nan
59375;BME280;45172;55.006;73.460;2022-09-01T07:04:38;99659.72;;;28.63;nan
59375;BME280;45172;55.006;73.460;2022-09-01T07:07:11;99670.50;;;28.78;nan
59375;BME280;45172;55.006;73.460;2022-09-01T07:09:51;99678.16;;;28.85;nan
59375;BME280;45172;55.006;73.460;2022-09-01T07:12:27;99688.63;;;28.92;nan
59375;BME280;45172;55.006;73.460;2022-09-01T07:14:55;99678.38;;;28.95;nan
59375;BME280;45172;55.006;73.460;2022-09-01T07:17:26;99689.91;;;28.99;nan
59375;BME280;45172;55.006;73.460;2022-09-01T07:20:05;99669.53;;;28.92;nan
59375;BME280;45172;55.006;73.460;2022-09-01T07:22:33;99690.13;;;29.09;nan
59375;BME280;45172;55.006;73.460;2022-09-01T07:25:00;99690.00;;;29.10;nan
59375;BME280;45172;55.006;73.460;2022-09-01T07:27:32;99677.69;;;29.05;nan
59375;BME280;45172;55.006;73.460;2022-09-01T07:29:58;99695.28;;;29.38;nan
59375;BME280;45172;55.006;73.460;2022-09-01T07:32:37;99671.69;;;29.12;nan
59375;BME280;45172;55.006;73.460;2022-09-01T07:35:19;99667.47;;;28.95;nan
59375;BME280;45172;55.006;73.460;2022-09-01T07:37:51;99693.03;;;29.19;nan
59375;BME280;45172;55.006;73.460;2022-09-01T07:40:19;99691.59;;;29.26;nan
59375;BME280;45172;55.006;73.460;2022-09-01T07:42:53;99713.63;;;29.36;nan
59375;BME280;45172;55.006;73.460;2022-09-01T07:45:19;99684.31;;;29.26;nan
59375;BME280;45172;55.006;73.460;2022-09-01T07:47:53;99679.59;;;29.29;nan
59375;BME280;45172;55.006;73.460;2022-09-01T07:50:24;99711.19;;;29.57;nan
59375;BME280;45172;55.006;73.460;2022-09-01T07:53:02;99707.00;;;29.64;nan
59375;BME280;45172;55.006;73.460;2022-09-01T07:55:29;99725.72;;;29.82;nan
59375;BME280;45172;55.006;73.460;2022-09-01T07:58:03;99719.00;;;29.75;nan
59375;BME280;45172;55.006;73.460;2022-09-01T08:00:29;99714.84;;;29.69;nan
59375;BME280;45172;55.006;73.460;2022-09-01T08:02:56;99718.38;;;29.83;nan
59375;BME280;45172;55.006;73.460;2022-09-01T08:05:22;99693.00;;;29.69;nan
59375;BME280;45172;55.006;73.460;2022-09-01T08:07:52;99715.19;;;29.89;nan
59375;BME280;45172;55.006;73.460;2022-09-01T08:10:18;99705.84;;;29.80;nan
59375;BME280;45172;55.006;73.460;2022-09-01T08:12:49;99738.22;;;29.98;nan
59375;BME280;45172;55.006;73.460;2022-09-01T08:15:16;99722.06;;;29.70;nan
59375;BME280;45172;55.006;73.460;2022-09-01T08:17:43;99741.81;;;29.74;nan
59375;BME280;45172;55.006;73.460;2022-09-01T08:20:16;99742.81;;;29.60;nan
59375;BME280;45172;55.006;73.460;2022-09-01T08:22:42;99728.03;;;29.51;nan
59375;BME280;45172;55.006;73.460;2022-09-01T08:25:09;99730.50;;;29.54;nan
59375;BME280;45172;55.006;73.460;2022-09-01T08:27:39;99724.97;;;29.43;nan
59375;BME280;45172;55.006;73.460;2022-09-01T08:30:09;99754.81;;;29.57;nan
59375;BME280;45172;55.006;73.460;2022-09-01T08:32:46;99741.66;;;29.51;nan
59375;BME280;45172;55.006;73.460;2022-09-01T08:35:14;99710.28;;;29.19;nan
59375;BME280;45172;55.006;73.460;2022-09-01T08:37:41;99722.25;;;29.30;nan
59375;BME280;45172;55.006;73.460;2022-09-01T08:40:13;99770.78;;;29.50;nan
59375;BME280;45172;55.006;73.460;2022-09-01T08:43:04;99766.72;;;29.56;nan
59375;BME280;45172;55.006;73.460;2022-09-01T08:45:41;99764.78;;;29.58;nan
59375;BME280;45172;55.006;73.460;2022-09-01T08:48:19;99784.53;;;29.62;nan
59375;BME280;45172;55.006;73.460;2022-09-01T08:54:28;99765.75;;;29.44;nan
59375;BME280;45172;55.006;73.460;2022-09-01T08:57:35;99783.09;;;29.43;nan
59375;BME280;45172;55.006;73.460;2022-09-01T09:00:03;99779.50;;;29.56;nan
59375;BME280;45172;55.006;73.460;2022-09-01T09:11:05;99786.25;;;29.37;nan
59375;BME280;45172;55.006;73.460;2022-09-01T09:16:40;99794.75;;;29.45;nan
59375;BME280;45172;55.006;73.460;2022-09-01T09:19:25;99781.34;;;29.42;nan
59375;BME280;45172;55.006;73.460;2022-09-01T09:21:54;99799.56;;;29.42;nan
59375;BME280;45172;55.006;73.460;2022-09-01T09:24:49;99801.34;;;29.43;nan
59375;BME280;45172;55.006;73.460;2022-09-01T09:27:32;99803.06;;;29.44;nan
59375;BME280;45172;55.006;73.460;2022-09-01T09:30:10;99797.84;;;29.15;nan
59375;BME280;45172;55.006;73.460;2022-09-01T09:32:56;99811.50;;;29.15;nan
59375;BME280;45172;55.006;73.460;2022-09-01T09:41:17;99815.97;;;28.90;nan
59375;BME280;45172;55.006;73.460;2022-09-01T09:44:04;99811.97;;;28.81;nan
59375;BME280;45172;55.006;73.460;2022-09-01T09:49:26;99801.66;;;28.46;nan
59375;BME280;45172;55.006;73.460;2022-09-01T09:51:56;99815.41;;;28.44;nan
59375;BME280;45172;55.006;73.460;2022-09-01T09:54:40;99826.19;;;28.46;nan
59375;BME280;45172;55.006;73.460;2022-09-01T09:57:21;99837.72;;;28.49;nan
59375;BME280;45172;55.006;73.460;2022-09-01T10:00:09;99828.69;;;28.36;nan
59375;BME280;45172;55.006;73.460;2022-09-01T10:03:00;99845.91;;;28.22;nan
59375;BME280;45172;55.006;73.460;2022-09-01T10:05:35;99847.38;;;28.13;nan
59375;BME280;45172;55.006;73.460;2022-09-01T10:08:09;99837.81;;;27.93;nan
59375;BME280;45172;55.006;73.460;2022-09-01T10:10:42;99835.59;;;27.85;nan
59375;BME280;45172;55.006;73.460;2022-09-01T10:13:19;99850.25;;;27.82;nan
59375;BME280;45172;55.006;73.460;2022-09-01T10:15:57;99858.25;;;27.85;nan
59375;BME280;45172;55.006;73.460;2022-09-01T10:18:29;99848.53;;;27.81;nan
59375;BME280;45172;55.006;73.460;2022-09-01T10:20:58;99850.56;;;27.78;nan
59375;BME280;45172;55.006;73.460;2022-09-01T10:23:28;99854.75;;;27.69;nan
59375;BME280;45172;55.006;73.460;2022-09-01T10:26:28;99868.06;;;27.59;nan
59375;BME280;45172;55.006;73.460;2022-09-01T10:29:12;99844.03;;;27.51;nan
59375;BME280;45172;55.006;73.460;2022-09-01T10:31:41;99867.97;;;27.60;nan
59375;BME280;45172;55.006;73.460;2022-09-01T10:34:13;99873.78;;;27.54;nan
59375;BME280;45172;55.006;73.460;2022-09-01T10:36:44;99855.72;;;27.39;nan
59375;BME280;45172;55.006;73.460;2022-09-01T10:39:17;99880.84;;;27.28;nan
59375;BME280;45172;55.006;73.460;2022-09-01T10:41:50;99879.78;;;27.16;nan
59375;BME280;45172;55.006;73.460;2022-09-01T10:44:26;99888.66;;;27.03;nan
59375;BME280;45172;55.006;73.460;2022-09-01T10:47:32;99885.47;;;26.97;nan
59375;BME280;45172;55.006;73.460;2022-09-01T10:50:25;99881.84;;;26.96;nan
59375;BME280;45172;55.006;73.460;2022-09-01T10:53:01;99887.09;;;26.99;nan
59375;BME280;45172;55.006;73.460;2022-09-01T10:55:33;99889.63;;;27.02;nan
59375;BME280;45172;55.006;73.460;2022-09-01T10:58:28;99891.94;;;26.94;nan
59375;BME280;45172;55.006;73.460;2022-09-01T11:01:06;99884.31;;;26.85;nan
59375;BME280;45172;55.006;73.460;2022-09-01T11:03:36;99903.97;;;26.90;nan
59375;BME280;45172;55.006;73.460;2022-09-01T11:06:07;99907.81;;;26.86;nan
59375;BME280;45172;55.006;73.460;2022-09-01T11:08:57;99897.84;;;26.70;nan
59375;BME280;45172;55.006;73.460;2022-09-01T11:14:23;99898.38;;;26.61;nan
59375;BME280;45172;55.006;73.460;2022-09-01T11:23:04;99922.78;;;26.46;nan
59375;BME280;45172;55.006;73.460;2022-09-01T11:36:25;99895.25;;;26.04;nan
59375;BME280;45172;55.006;73.460;2022-09-01T11:39:01;99936.88;;;26.21;nan
59375;BME280;45172;55.006;73.460;2022-09-01T11:41:32;99944.19;;;26.19;nan
59375;BME280;45172;55.006;73.460;2022-09-01T11:44:14;99944.34;;;26.16;nan
59375;BME280;45172;55.006;73.460;2022-09-01T11:46:49;99930.94;;;25.96;nan
59375;BME280;45172;55.006;73.460;2022-09-01T11:49:36;99933.66;;;25.80;nan
59375;BME280;45172;55.006;73.460;2022-09-01T11:52:15;99957.63;;;25.88;nan
59375;BME280;45172;55.006;73.460;2022-09-01T11:54:46;99953.81;;;25.75;nan
59375;BME280;45172;55.006;73.460;2022-09-01T12:00:11;99969.09;;;25.60;nan
59375;BME280;45172;55.006;73.460;2022-09-01T12:02:51;99977.63;;;25.52;nan
59375;BME280;45172;55.006;73.460;2022-09-01T12:05:31;99930.25;;;25.06;nan
59375;BME280;45172;55.006;73.460;2022-09-01T12:08:15;99974.66;;;25.21;nan
59375;BME280;45172;55.006;73.460;2022-09-01T12:10:47;99985.81;;;25.15;nan
59375;BME280;45172;55.006;73.460;2022-09-01T12:13:23;99986.34;;;24.86;nan
59375;BME280;45172;55.006;73.460;2022-09-01T12:16:19;99999.31;;;24.80;nan
59375;BME280;45172;55.006;73.460;2022-09-01T12:18:52;99997.97;;;24.69;nan
59375;BME280;45172;55.006;73.460;2022-09-01T12:21:40;99996.53;;;24.43;nan
59375;BME280;45172;55.006;73.460;2022-09-01T12:24:21;100017.53;;;24.38;nan
59375;BME280;45172;55.006;73.460;2022-09-01T12:26:51;100009.34;;;24.20;nan
59375;BME280;45172;55.006;73.460;2022-09-01T12:29:22;100021.53;;;24.10;nan
59375;BME280;45172;55.006;73.460;2022-09-01T12:31:50;100028.94;;;24.04;nan
59375;BME280;45172;55.006;73.460;2022-09-01T12:39:46;100044.13;;;23.88;nan
59375;BME280;45172;55.006;73.460;2022-09-01T12:53:11;100067.03;;;23.15;nan
59375;BME280;45172;55.006;73.460;2022-09-01T12:55:58;100048.81;;;22.98;nan
59375;BME280;45172;55.006;73.460;2022-09-01T12:58:27;100078.47;;;22.99;nan
59375;BME280;45172;55.006;73.460;2022-09-01T13:01:23;100084.81;;;22.75;nan
59375;BME280;45172;55.006;73.460;2022-09-01T13:04:24;100092.47;;;22.63;nan
59375;BME280;45172;55.006;73.460;2022-09-01T13:07:01;100080.34;;;22.51;nan
59375;BME280;45172;55.006;73.460;2022-09-01T13:09:28;100090.69;;;22.38;nan
59375;BME280;45172;55.006;73.460;2022-09-01T13:12:18;100113.31;;;22.34;nan
59375;BME280;45172;55.006;73.460;2022-09-01T13:14:46;100111.63;;;22.31;nan
59375;BME280;45172;55.006;73.460;2022-09-01T13:17:23;100117.31;;;22.24;nan
59375;BME280;45172;55.006;73.460;2022-09-01T13:19:49;100129.13;;;22.20;nan
59375;BME280;45172;55.006;73.460;2022-09-01T13:22:25;100133.06;;;22.11;nan
59375;BME280;45172;55.006;73.460;2022-09-01T13:24:56;100127.94;;;22.03;nan
59375;BME280;45172;55.006;73.460;2022-09-01T13:27:22;100106.94;;;21.86;nan
59375;BME280;45172;55.006;73.460;2022-09-01T13:30:00;100119.72;;;21.81;nan
59375;BME280;45172;55.006;73.460;2022-09-01T13:32:27;100131.94;;;21.91;nan
59375;BME280;45172;55.006;73.460;2022-09-01T13:34:53;100155.47;;;21.86;nan
59375;BME280;45172;55.006;73.460;2022-09-01T13:37:29;100149.47;;;21.78;nan
59375;BME280;45172;55.006;73.460;2022-09-01T13:39:55;100151.50;;;21.71;nan
59375;BME280;45172;55.006;73.460;2022-09-01T13:42:21;100148.97;;;21.65;nan
59375;BME280;45172;55.006;73.460;2022-09-01T13:44:50;100098.34;;;21.20;nan
59375;BME280;45172;55.006;73.460;2022-09-01T13:47:18;100165.63;;;21.51;nan
59375;BME280;45172;55.006;73.460;2022-09-01T13:49:44;100152.50;;;21.40;nan
59375;BME280;45172;55.006;73.460;2022-09-01T13:52:15;100173.28;;;21.36;nan
59375;BME280;45172;55.006;73.460;2022-09-01T13:54:54;100168.34;;;21.22;nan
59375;BME280;45172;55.006;73.460;2022-09-01T13:57:22;100183.41;;;21.28;nan
59375;BME280;45172;55.006;73.460;2022-09-01T13:59:53;100156.22;;;21.07;nan
59375;BME280;45172;55.006;73.460;2022-09-01T14:02:20;100189.03;;;21.20;nan
59375;BME280;45172;55.006;73.460;2022-09-01T14:04:47;100199.91;;;21.17;nan
59375;BME280;45172;55.006;73.460;2022-09-01T14:07:12;100203.56;;;21.14;nan
59375;BME280;45172;55.006;73.460;2022-09-01T14:14:52;100166.59;;;20.59;nan
59375;BME280;45172;55.006;73.460;2022-09-01T14:17:19;100166.72;;;20.55;nan
59375;BME280;45172;55.006;73.460;2022-09-01T14:19:49;100168.56;;;20.52;nan
59375;BME280;45172;55.006;73.460;2022-09-01T14:22:22;100211.91;;;20.73;nan
59375;BME280;45172;55.006;73.460;2022-09-01T14:24:48;100227.06;;;20.77;nan
59375;BME280;45172;55.006;73.460;2022-09-01T14:27:18;100195.56;;;20.49;nan
59375;BME280;45172;55.006;73.460;2022-09-01T14:29:49;100157.81;;;20.19;nan
59375;BME280;45172;55.006;73.460;2022-09-01T14:32:19;100221.34;;;20.58;nan
59375;BME280;45172;55.006;73.460;2022-09-01T14:34:55;100219.88;;;20.46;nan
59375;BME280;45172;55.006;73.460;2022-09-01T14:37:22;100197.09;;;20.25;nan
59375;BME280;45172;55.006;73.460;2022-09-01T14:40:03;100237.94;;;20.41;nan
59375;BME280;45172;55.006;73.460;2022-09-01T14:43:08;100154.19;;;19.85;nan
59375;BME280;45172;55.006;73.460;2022-09-01T14:45:35;100087.19;;;19.44;nan
59375;BME280;45172;55.006;73.460;2022-09-01T14:48:10;100105.94;;;19.46;nan
59375;BME280;45172;55.006;73.460;2022-09-01T14:50:57;100188.16;;;19.90;nan
59375;BME280;45172;55.006;73.460;2022-09-01T14:53:29;100160.13;;;19.64;nan
59375;BME280;45172;55.006;73.460;2022-09-01T14:56:05;100251.22;;;20.12;nan
59375;BME280;45172;55.006;73.460;2022-09-01T14:58:31;100250.56;;;20.04;nan
59375;BME280;45172;55.006;73.460;2022-09-01T15:00:58;100264.16;;;19.96;nan
59375;BME280;45172;55.006;73.460;2022-09-01T15:03:25;100267.91;;;19.89;nan
59375;BME280;45172;55.006;73.460;2022-09-01T15:05:52;100231.00;;;19.58;nan
59375;BME280;45172;55.006;73.460;2022-09-01T15:08:29;100245.25;;;19.62;nan
59375;BME280;45172;55.006;73.460;2022-09-01T15:10:55;100246.31;;;19.54;nan
59375;BME280;45172;55.006;73.460;2022-09-01T15:13:24;100219.13;;;19.29;nan
59375;BME280;45172;55.006;73.460;2022-09-01T15:15:57;100278.44;;;19.61;nan